createdAt,value
2019-05-26T00:02:10.189Z,12.13
2019-05-26T00:04:39.624Z,12.33
2019-05-26T00:07:09.040Z,12.35
2019-05-26T00:09:38.435Z,13.50
2019-05-26T00:12:08.624Z,12.68
2019-05-26T00:14:38.018Z,14.20
2019-05-26T00:17:07.475Z,14.45
2019-05-26T00:19:37.025Z,12.78
2019-05-26T00:22:06.500Z,13.50
2019-05-26T00:24:36.211Z,12.50
2019-05-26T00:27:05.635Z,14.07
2019-05-26T00:29:35.193Z,14.60
2019-05-26T00:32:04.571Z,13.37
2019-05-26T00:34:33.935Z,14.70
2019-05-26T00:37:03.338Z,14.53
2019-05-26T00:39:32.807Z,13.30
2019-05-26T00:42:02.131Z,15.10
2019-05-26T00:44:31.566Z,14.90
2019-05-26T00:47:01.060Z,13.80
2019-05-26T00:49:30.476Z,15.18
2019-05-26T00:51:59.985Z,15.38
2019-05-26T00:54:29.396Z,14.07
2019-05-26T00:56:58.804Z,15.08
2019-05-26T00:59:28.183Z,15.60
2019-05-26T01:01:57.976Z,16.15
2019-05-26T01:04:30.795Z,14.78
2019-05-26T01:07:00.830Z,15.87
2019-05-26T01:09:30.888Z,14.75
2019-05-26T01:12:01.917Z,14.75
2019-05-26T01:14:33.708Z,15.47
2019-05-26T01:17:03.495Z,15.57
2019-05-26T01:19:33.102Z,15.35
2019-05-26T01:22:03.264Z,15.83
2019-05-26T01:24:35.803Z,14.93
2019-05-26T01:27:05.127Z,15.70
2019-05-26T01:29:34.695Z,15.65
2019-05-26T01:32:04.085Z,14.15
2019-05-26T01:34:35.210Z,14.55
2019-05-26T01:37:06.418Z,15.63
2019-05-26T01:39:42.994Z,14.95
2019-05-26T01:42:14.861Z,15.38
2019-05-26T01:44:48.279Z,13.80
2019-05-26T01:47:21.040Z,15.07
2019-05-26T01:50:04.264Z,13.93
2019-05-26T01:52:49.975Z,15.63
2019-05-26T01:55:20.879Z,16.15
2019-05-26T01:57:51.752Z,16.23
2019-05-26T02:00:23.987Z,14.77
2019-05-26T02:02:58.731Z,15.70
2019-05-26T02:05:31.938Z,16.93
2019-05-26T02:08:11.895Z,16.43
2019-05-26T02:10:41.178Z,16.23
2019-05-26T02:13:12.460Z,17.53
2019-05-26T02:15:44.450Z,17.93
2019-05-26T02:18:18.193Z,16.80
2019-05-26T02:20:52.844Z,18.60
2019-05-26T02:23:27.006Z,17.33
2019-05-26T02:25:57.994Z,17.10
2019-05-26T02:28:32.580Z,18.67
2019-05-26T02:31:04.981Z,17.60
2019-05-26T02:33:40.327Z,18.47
2019-05-26T02:36:12.907Z,18.47
2019-05-26T02:39:01.471Z,17.27
2019-05-26T02:41:21.488Z,17.37
2019-05-26T02:43:54.130Z,17.73
2019-05-26T02:46:25.904Z,19.10
2019-05-26T02:48:58.603Z,18.82
2019-05-26T02:51:30.993Z,18.12
2019-05-26T02:54:03.074Z,18.75
2019-05-26T02:56:40.237Z,17.43
2019-05-26T02:59:12.393Z,17.12
2019-05-26T03:02:00.802Z,18.10
2019-05-26T03:04:18.503Z,16.70
2019-05-26T03:06:51.827Z,18.37
2019-05-26T03:09:25.848Z,17.80
2019-05-26T03:11:59.212Z,17.75
2019-05-26T03:14:34.272Z,17.13
2019-05-26T03:17:06.294Z,18.15
2019-05-26T03:19:39.583Z,16.80
2019-05-26T03:22:13.116Z,18.33
2019-05-26T03:24:45.119Z,18.10
2019-05-26T03:27:14.496Z,16.15
2019-05-26T03:29:45.476Z,16.42
2019-05-26T03:32:16.169Z,17.93
2019-05-26T03:34:48.243Z,17.98
2019-05-26T03:37:18.597Z,18.30
2019-05-26T03:39:48.677Z,17.37
2019-05-26T03:42:18.470Z,17.30
2019-05-26T03:44:47.869Z,17.90
2019-05-26T03:47:17.398Z,17.70
2019-05-26T03:49:47.076Z,17.98
2019-05-26T03:52:16.727Z,18.60
2019-05-26T03:54:49.228Z,20.52
2019-05-26T03:57:18.641Z,18.87
2019-05-26T03:59:48.034Z,17.37
2019-05-26T04:02:17.494Z,17.97
2019-05-26T04:04:46.904Z,17.27
2019-05-26T04:07:16.292Z,20.10
2019-05-26T04:10:03.030Z,18.15
2019-05-26T04:12:16.737Z,19.05
2019-05-26T04:14:46.164Z,19.02
2019-05-26T04:17:15.550Z,18.70
2019-05-26T04:19:45.691Z,18.82
2019-05-26T04:22:15.030Z,19.32
2019-05-26T04:24:44.545Z,19.12
2019-05-26T04:27:13.949Z,19.75
2019-05-26T04:29:43.344Z,17.63
2019-05-26T04:32:12.756Z,17.83
2019-05-26T04:34:42.140Z,19.23
2019-05-26T04:37:11.533Z,17.27
2019-05-26T04:39:40.923Z,17.75
2019-05-26T04:42:10.323Z,18.92
2019-05-26T04:44:39.744Z,19.48
2019-05-26T04:47:09.232Z,18.90
2019-05-26T04:49:38.635Z,18.83
2019-05-26T04:52:08.084Z,18.90
2019-05-26T04:54:37.534Z,19.02
2019-05-26T04:57:07.053Z,18.77
2019-05-26T04:59:36.466Z,18.60
2019-05-26T05:02:05.901Z,20.03
2019-05-26T05:04:35.331Z,19.87
2019-05-26T05:07:04.761Z,19.17
2019-05-26T05:09:34.189Z,20.88
2019-05-26T05:12:03.680Z,19.23
2019-05-26T05:14:33.080Z,19.27
2019-05-26T05:17:02.492Z,18.53
2019-05-26T05:19:31.910Z,19.12
2019-05-26T05:22:01.367Z,18.33
2019-05-26T05:24:30.751Z,18.63
2019-05-26T05:27:00.214Z,19.13
2019-05-26T05:29:29.587Z,18.07
2019-05-26T05:31:59.104Z,18.60
2019-05-26T05:34:28.507Z,19.50
2019-05-26T05:36:57.914Z,19.67
2019-05-26T05:39:27.411Z,22.17
2019-05-26T05:41:56.926Z,17.97
2019-05-26T05:44:26.430Z,17.07
2019-05-26T05:46:55.840Z,15.15
2019-05-26T05:49:25.251Z,17.73
2019-05-26T05:51:54.653Z,16.65
2019-05-26T05:54:24.215Z,16.80
2019-05-26T05:56:55.714Z,16.73
2019-05-26T05:59:24.700Z,17.27
2019-05-26T06:01:54.089Z,16.50
2019-05-26T06:04:23.514Z,16.05
2019-05-26T06:06:52.901Z,16.90
2019-05-26T06:09:22.301Z,17.02
2019-05-26T06:11:56.481Z,17.60
2019-05-26T06:14:22.879Z,18.70
2019-05-26T06:16:52.319Z,15.72
2019-05-26T06:19:21.649Z,16.35
2019-05-26T06:21:51.122Z,15.98
2019-05-26T06:24:20.455Z,16.17
2019-05-26T06:26:49.980Z,16.13
2019-05-26T06:29:19.386Z,15.68
2019-05-26T06:31:49.099Z,16.60
2019-05-26T06:34:18.741Z,14.43
2019-05-26T06:36:48.124Z,15.53
2019-05-26T06:39:17.520Z,15.20
2019-05-26T06:41:46.923Z,13.88
2019-05-26T06:44:16.602Z,15.45
2019-05-26T06:46:45.983Z,13.72
2019-05-26T06:49:15.423Z,14.75
2019-05-26T06:51:44.825Z,15.50
2019-05-26T06:54:14.327Z,14.18
2019-05-26T06:56:44.090Z,14.18
2019-05-26T06:59:13.501Z,14.50
2019-05-26T07:01:42.898Z,13.00
2019-05-26T07:04:12.357Z,14.05
2019-05-26T07:06:42.093Z,13.00
2019-05-26T07:09:11.494Z,15.23
2019-05-26T07:11:55.625Z,14.00
2019-05-26T07:14:12.027Z,13.70
2019-05-26T07:16:41.431Z,13.32
2019-05-26T07:19:10.821Z,10.63
2019-05-26T07:21:40.273Z,13.62
2019-05-26T07:24:09.666Z,13.22
2019-05-26T07:26:39.119Z,12.45
2019-05-26T07:29:08.605Z,11.83
2019-05-26T07:31:38.023Z,12.23
2019-05-26T07:34:07.448Z,13.15
2019-05-26T07:36:36.853Z,13.05
2019-05-26T07:39:08.782Z,12.45
2019-05-26T07:41:38.169Z,12.23
2019-05-26T07:44:07.570Z,11.85
2019-05-26T07:46:37.012Z,14.15
2019-05-26T07:49:06.467Z,11.30
2019-05-26T07:51:35.892Z,13.15
2019-05-26T07:54:05.744Z,11.12
2019-05-26T07:56:35.287Z,11.10
2019-05-26T07:59:04.816Z,11.12
2019-05-26T08:01:36.063Z,12.07
2019-05-26T08:04:05.720Z,10.55
2019-05-26T08:06:35.131Z,10.43
2019-05-26T08:09:06.394Z,9.80
2019-05-26T08:11:35.842Z,10.90
2019-05-26T08:14:05.379Z,10.18
2019-05-26T08:16:34.802Z,8.83
2019-05-26T08:19:04.312Z,9.95
2019-05-26T08:21:33.824Z,9.10
2019-05-26T08:24:03.261Z,9.08
2019-05-26T08:26:32.656Z,8.85
2019-05-26T08:29:02.049Z,8.15
2019-05-26T08:31:31.473Z,8.45
2019-05-26T08:34:00.876Z,9.88
2019-05-26T08:36:30.279Z,8.83
2019-05-26T08:38:59.723Z,7.25
2019-05-26T08:41:29.104Z,8.53
2019-05-26T08:43:59.367Z,8.60
2019-05-26T08:46:28.899Z,7.97
2019-05-26T08:48:58.321Z,7.37
2019-05-26T08:51:27.709Z,7.92
2019-05-26T08:53:57.107Z,9.50
2019-05-26T08:56:26.573Z,8.13
2019-05-26T08:58:56.022Z,7.75
2019-05-26T09:01:25.951Z,7.92
2019-05-26T09:03:55.360Z,9.05
2019-05-26T09:06:24.762Z,8.85
2019-05-26T09:08:54.181Z,8.28
2019-05-26T09:11:24.140Z,7.97
2019-05-26T09:13:53.543Z,9.05
2019-05-26T09:16:22.952Z,8.05
2019-05-26T09:18:52.360Z,8.83
2019-05-26T09:21:21.764Z,8.73
2019-05-26T09:23:51.146Z,9.10
2019-05-26T09:26:21.014Z,9.53
2019-05-26T09:28:50.403Z,8.43
2019-05-26T09:31:19.855Z,8.63
2019-05-26T09:33:49.237Z,7.17
2019-05-26T09:36:18.607Z,7.03
2019-05-26T09:38:48.070Z,6.83
2019-05-26T09:41:17.454Z,6.03
2019-05-26T09:43:46.895Z,6.72
2019-05-26T09:46:16.270Z,6.83
2019-05-26T09:48:45.662Z,7.10
2019-05-26T09:51:15.048Z,7.35
2019-05-26T09:53:44.579Z,7.78
2019-05-26T09:56:14.038Z,7.35
2019-05-26T09:58:43.454Z,7.05
2019-05-26T10:01:12.859Z,8.35
2019-05-26T10:03:42.296Z,7.65
2019-05-26T10:06:11.700Z,6.90
2019-05-26T10:08:41.093Z,6.55
2019-05-26T10:11:10.499Z,6.45
2019-05-26T10:13:39.911Z,7.33
2019-05-26T10:16:09.281Z,6.65
2019-05-26T10:18:38.671Z,6.92
2019-05-26T10:21:08.072Z,6.60
2019-05-26T10:23:37.502Z,7.37
2019-05-26T10:26:06.925Z,5.87
2019-05-26T10:28:36.335Z,5.70
2019-05-26T10:31:05.760Z,6.15
2019-05-26T10:33:35.436Z,6.92
2019-05-26T10:36:04.843Z,7.15
2019-05-26T10:38:34.288Z,6.50
2019-05-26T10:41:03.883Z,5.55
2019-05-26T10:43:46.861Z,6.40
2019-05-26T10:46:07.004Z,6.60
2019-05-26T10:48:36.405Z,6.87
2019-05-26T10:51:06.968Z,5.83
2019-05-26T10:53:36.428Z,6.80
2019-05-26T10:56:05.965Z,7.62
2019-05-26T10:58:35.363Z,6.58
2019-05-26T11:01:04.887Z,6.83
2019-05-26T11:03:34.293Z,6.60
2019-05-26T11:06:03.796Z,5.65
2019-05-26T11:08:33.179Z,6.50
2019-05-26T11:11:02.598Z,6.67
2019-05-26T11:13:31.995Z,6.85
2019-05-26T11:16:01.404Z,7.08
2019-05-26T11:18:30.837Z,7.25
2019-05-26T11:21:00.252Z,7.60
2019-05-26T11:23:29.668Z,6.83
2019-05-26T11:25:59.052Z,7.55
2019-05-26T11:28:28.495Z,6.53
2019-05-26T11:30:57.815Z,6.50
2019-05-26T11:33:27.210Z,6.03
2019-05-26T11:35:56.608Z,5.97
2019-05-26T11:38:25.993Z,4.92
2019-05-26T11:40:55.422Z,5.22
2019-05-26T11:43:26.902Z,5.67
2019-05-26T11:45:56.311Z,5.87
2019-05-26T11:48:25.623Z,5.65
2019-05-26T11:50:56.491Z,7.22
2019-05-26T11:53:25.955Z,4.87
2019-05-26T11:55:55.460Z,4.40
2019-05-26T11:58:24.960Z,4.95
2019-05-26T12:00:54.323Z,4.20
2019-05-26T12:03:23.815Z,4.95
2019-05-26T12:05:53.287Z,4.62
2019-05-26T12:08:22.686Z,4.45
2019-05-26T12:10:52.094Z,4.30
2019-05-26T12:13:21.428Z,4.47
2019-05-26T12:15:50.812Z,5.78
2019-05-26T12:18:20.296Z,4.72
2019-05-26T12:20:49.692Z,4.62
2019-05-26T12:23:19.115Z,4.47
2019-05-26T12:25:48.787Z,4.60
2019-05-26T12:28:18.149Z,5.10
2019-05-26T12:30:47.556Z,4.62
2019-05-26T12:33:16.962Z,4.62
2019-05-26T12:35:46.811Z,4.75
2019-05-26T12:38:16.191Z,4.45
2019-05-26T12:40:45.599Z,4.90
2019-05-26T12:43:16.239Z,4.28
2019-05-26T12:45:45.642Z,4.42
2019-05-26T12:48:15.021Z,4.60
2019-05-26T12:50:44.412Z,5.35
2019-05-26T12:53:13.943Z,4.58
2019-05-26T12:55:43.355Z,3.90
2019-05-26T12:58:12.809Z,4.00
2019-05-26T13:00:48.662Z,4.17
2019-05-26T13:03:13.413Z,3.40
2019-05-26T13:05:43.520Z,3.80
2019-05-26T13:08:12.966Z,3.33
2019-05-26T13:10:42.345Z,3.72
2019-05-26T13:13:11.778Z,3.40
2019-05-26T13:15:41.185Z,4.15
2019-05-26T13:18:10.626Z,3.17
2019-05-26T13:20:40.030Z,3.37
2019-05-26T13:23:09.444Z,3.92
2019-05-26T13:25:38.854Z,3.47
2019-05-26T13:28:08.258Z,3.33
2019-05-26T13:30:38.351Z,3.40
2019-05-26T13:33:07.738Z,2.77
2019-05-26T13:35:37.621Z,3.33
2019-05-26T13:38:07.072Z,2.80
2019-05-26T13:40:36.488Z,3.77
2019-05-26T13:43:05.919Z,3.25
2019-05-26T13:45:35.333Z,4.55
2019-05-26T13:48:04.711Z,4.03
2019-05-26T13:50:34.119Z,3.90
2019-05-26T13:53:03.486Z,3.92
2019-05-26T13:55:32.935Z,4.45
2019-05-26T13:58:02.393Z,3.67
2019-05-26T14:00:31.824Z,4.42
2019-05-26T14:03:01.291Z,3.55
2019-05-26T14:05:30.741Z,3.85
2019-05-26T14:08:00.150Z,4.22
2019-05-26T14:10:34.291Z,3.33
2019-05-26T14:13:04.583Z,3.30
2019-05-26T14:15:38.606Z,3.10
2019-05-26T14:18:06.754Z,3.25
2019-05-26T14:20:40.208Z,3.45
2019-05-26T14:23:11.698Z,3.22
2019-05-26T14:25:41.068Z,3.35
2019-05-26T14:28:10.442Z,3.30
2019-05-26T14:30:39.859Z,3.70
2019-05-26T14:33:09.235Z,3.52
2019-05-26T14:35:38.643Z,4.53
2019-05-26T14:38:08.055Z,3.45
2019-05-26T14:40:37.471Z,2.90
2019-05-26T14:43:06.972Z,3.22
2019-05-26T14:45:36.501Z,2.87
2019-05-26T14:48:06.263Z,2.72
2019-05-26T14:50:35.727Z,3.02
2019-05-26T14:53:05.129Z,2.80
2019-05-26T14:55:34.578Z,2.80
2019-05-26T14:58:14.841Z,3.22
2019-05-26T15:00:35.037Z,2.87
2019-05-26T15:03:04.721Z,3.40
2019-05-26T15:05:34.057Z,3.52
2019-05-26T15:08:03.473Z,3.60
2019-05-26T15:10:32.894Z,3.40
2019-05-26T15:13:02.303Z,3.42
2019-05-26T15:15:34.908Z,2.92
2019-05-26T15:18:02.719Z,3.50
2019-05-26T15:20:32.113Z,3.90
2019-05-26T15:23:01.565Z,3.67
2019-05-26T15:25:31.048Z,3.58
2019-05-26T15:28:00.459Z,2.98
2019-05-26T15:30:29.950Z,3.02
2019-05-26T15:32:59.496Z,2.85
2019-05-26T15:35:28.916Z,3.20
2019-05-26T15:37:58.387Z,2.83
2019-05-26T15:40:27.921Z,3.22
2019-05-26T15:42:57.331Z,3.30
2019-05-26T15:45:26.763Z,3.15
2019-05-26T15:47:56.147Z,3.08
2019-05-26T15:50:25.570Z,2.87
2019-05-26T15:52:55.067Z,2.98
2019-05-26T15:55:24.469Z,3.00
2019-05-26T15:57:53.859Z,2.72
2019-05-26T16:00:23.620Z,3.17
2019-05-26T16:02:53.046Z,2.83
2019-05-26T16:05:22.375Z,3.00
2019-05-26T16:07:51.823Z,2.40
2019-05-26T16:10:21.222Z,2.27
2019-05-26T16:12:50.625Z,2.80
2019-05-26T16:15:20.259Z,3.00
2019-05-26T16:17:49.673Z,2.35
2019-05-26T16:20:19.191Z,2.47
2019-05-26T16:22:48.654Z,2.27
2019-05-26T16:25:18.079Z,2.58
2019-05-26T16:27:47.467Z,2.37
2019-05-26T16:30:17.511Z,2.55
2019-05-26T16:32:46.886Z,3.20
2019-05-26T16:35:16.331Z,2.50
2019-05-26T16:37:45.719Z,2.80
2019-05-26T16:40:15.122Z,2.35
2019-05-26T16:42:44.508Z,2.12
2019-05-26T16:45:14.227Z,2.58
2019-05-26T16:47:43.883Z,2.90
2019-05-26T16:50:13.511Z,2.42
2019-05-26T16:52:42.896Z,2.20
2019-05-26T16:55:12.379Z,2.33
2019-05-26T16:57:41.815Z,2.75
2019-05-26T17:00:11.800Z,2.35
2019-05-26T17:02:41.244Z,2.77
2019-05-26T17:05:10.818Z,2.58
2019-05-26T17:07:40.235Z,2.27
2019-05-26T17:10:09.928Z,2.27
2019-05-26T17:12:39.342Z,2.65
2019-05-26T17:15:08.888Z,3.15
2019-05-26T17:17:38.279Z,2.80
2019-05-26T17:20:08.694Z,2.50
2019-05-26T17:22:38.131Z,2.52
2019-05-26T17:25:07.729Z,2.35
2019-05-26T17:27:37.110Z,2.47
2019-05-26T17:30:06.671Z,2.47
2019-05-26T17:32:36.070Z,2.87
2019-05-26T17:35:05.773Z,2.70
2019-05-26T17:37:35.459Z,3.05
2019-05-26T17:40:05.803Z,3.00
2019-05-26T17:42:35.580Z,3.12
2019-05-26T17:45:05.646Z,3.22
2019-05-26T17:47:35.062Z,3.37
2019-05-26T17:50:05.530Z,3.70
2019-05-26T17:52:34.941Z,3.70
2019-05-26T17:55:04.860Z,3.02
2019-05-26T17:57:37.085Z,3.77
2019-05-26T18:00:06.659Z,4.53
2019-05-26T18:02:36.044Z,3.42
2019-05-26T18:05:05.792Z,4.95
2019-05-26T18:07:35.217Z,3.90
2019-05-26T18:10:04.744Z,4.42
2019-05-26T18:12:34.172Z,3.98
2019-05-26T18:15:03.558Z,4.00
2019-05-26T18:17:45.974Z,5.12
2019-05-26T18:20:04.496Z,4.08
2019-05-26T18:22:33.913Z,4.00
2019-05-26T18:25:03.508Z,4.47
2019-05-26T18:27:32.888Z,4.55
2019-05-26T18:30:02.288Z,4.60
2019-05-26T18:32:31.659Z,4.00
2019-05-26T18:35:01.266Z,4.83
2019-05-26T18:37:31.071Z,12.50
2019-05-26T18:40:00.495Z,4.95
2019-05-26T18:42:29.882Z,5.22
2019-05-26T18:44:59.448Z,5.65
2019-05-26T18:47:28.875Z,6.25
2019-05-26T18:49:58.298Z,6.00
2019-05-26T18:52:27.671Z,5.37
2019-05-26T18:54:57.067Z,5.20
2019-05-26T18:57:26.459Z,5.35
2019-05-26T18:59:55.944Z,5.37
2019-05-26T19:02:25.487Z,5.08
2019-05-26T19:04:54.923Z,5.28
2019-05-26T19:07:24.355Z,4.30
2019-05-26T19:09:53.778Z,4.58
2019-05-26T19:12:23.143Z,6.67
2019-05-26T19:14:52.511Z,4.00
2019-05-26T19:17:21.998Z,3.80
2019-05-26T19:19:51.459Z,5.53
2019-05-26T19:22:20.846Z,4.05
2019-05-26T19:24:50.280Z,3.80
2019-05-26T19:27:19.666Z,4.00
2019-05-26T19:29:49.071Z,3.80
2019-05-26T19:32:18.508Z,5.35
2019-05-26T19:34:48.008Z,4.47
2019-05-26T19:37:17.428Z,5.80
2019-05-26T19:39:46.855Z,5.05
2019-05-26T19:42:16.252Z,4.45
2019-05-26T19:44:45.679Z,4.25
2019-05-26T19:47:15.109Z,4.25
2019-05-26T19:49:44.487Z,4.15
2019-05-26T19:52:13.839Z,4.47
2019-05-26T19:54:43.240Z,5.05
2019-05-26T19:57:12.691Z,5.33
2019-05-26T19:59:42.098Z,4.75
2019-05-26T20:02:18.499Z,4.62
2019-05-26T20:04:42.692Z,4.17
2019-05-26T20:07:12.103Z,5.30
2019-05-26T20:09:41.568Z,6.55
2019-05-26T20:12:10.966Z,5.58
2019-05-26T20:14:40.664Z,6.67
2019-05-26T20:17:10.058Z,5.65
2019-05-26T20:19:39.488Z,6.03
2019-05-26T20:22:08.871Z,6.58
2019-05-26T20:24:38.457Z,6.25
2019-05-26T20:27:07.868Z,6.50
2019-05-26T20:29:37.262Z,6.92
2019-05-26T20:32:06.661Z,7.53
2019-05-26T20:34:36.029Z,6.20
2019-05-26T20:37:05.456Z,6.90
2019-05-26T20:39:34.910Z,7.03
2019-05-26T20:42:04.429Z,6.45
2019-05-26T20:44:33.850Z,8.28
2019-05-26T20:47:03.264Z,9.23
2019-05-26T20:49:44.927Z,7.30
2019-05-26T20:52:03.736Z,7.62
2019-05-26T20:54:33.144Z,7.47
2019-05-26T20:57:02.557Z,8.18
2019-05-26T20:59:31.987Z,8.65
2019-05-26T21:02:01.433Z,8.13
2019-05-26T21:04:31.155Z,8.08
2019-05-26T21:07:00.598Z,8.30
2019-05-26T21:09:29.992Z,8.13
2019-05-26T21:11:59.384Z,12.23
2019-05-26T21:14:28.803Z,10.20
2019-05-26T21:16:58.216Z,9.40
2019-05-26T21:19:27.660Z,8.43
2019-05-26T21:21:57.082Z,8.15
2019-05-26T21:24:26.470Z,8.40
2019-05-26T21:26:55.897Z,8.50
2019-05-26T21:29:25.313Z,8.48
2019-05-26T21:31:54.772Z,8.70
2019-05-26T21:34:24.168Z,7.92
2019-05-26T21:36:53.612Z,8.25
2019-05-26T21:39:23.010Z,8.58
2019-05-26T21:41:52.406Z,9.70
2019-05-26T21:44:22.012Z,8.93
2019-05-26T21:46:51.441Z,8.95
2019-05-26T21:49:20.920Z,9.35
2019-05-26T21:51:53.087Z,8.25
2019-05-26T21:54:22.495Z,8.13
2019-05-26T21:56:51.994Z,8.78
2019-05-26T21:59:21.465Z,8.88
2019-05-26T22:01:50.907Z,7.85
2019-05-26T22:04:20.519Z,8.85
2019-05-26T22:06:49.916Z,10.35
2019-05-26T22:09:19.370Z,9.55
2019-05-26T22:11:48.985Z,9.00
2019-05-26T22:14:18.410Z,8.15
2019-05-26T22:16:47.795Z,8.20
2019-05-26T22:19:17.282Z,8.35
2019-05-26T22:21:46.660Z,8.00
2019-05-26T22:24:16.099Z,8.03
2019-05-26T22:26:45.515Z,8.83
2019-05-26T22:29:14.920Z,8.85
2019-05-26T22:31:44.320Z,8.15
2019-05-26T22:34:13.706Z,8.43
2019-05-26T22:36:43.138Z,8.10
2019-05-26T22:39:12.527Z,8.28
2019-05-26T22:41:41.948Z,8.38
2019-05-26T22:44:11.372Z,7.60
2019-05-26T22:46:40.893Z,8.90
2019-05-26T22:49:10.263Z,7.22
2019-05-26T22:51:39.675Z,8.43
2019-05-26T22:54:09.064Z,8.93
2019-05-26T22:56:38.499Z,8.98
2019-05-26T22:59:07.906Z,7.78
2019-05-26T23:01:37.355Z,8.33
2019-05-26T23:04:06.763Z,7.47
2019-05-26T23:06:36.180Z,7.92
2019-05-26T23:09:06.260Z,8.68
2019-05-26T23:11:35.651Z,8.10
2019-05-26T23:14:05.052Z,8.30
2019-05-26T23:16:34.963Z,8.45
2019-05-26T23:19:18.291Z,8.58
2019-05-26T23:21:35.397Z,8.20
2019-05-26T23:24:04.814Z,7.95
2019-05-26T23:26:34.671Z,8.58
2019-05-26T23:29:04.053Z,8.03
2019-05-26T23:31:33.485Z,7.95
2019-05-26T23:34:02.872Z,8.43
2019-05-26T23:36:32.291Z,8.43
2019-05-26T23:39:01.748Z,8.93
2019-05-26T23:41:31.188Z,8.10
2019-05-26T23:44:00.574Z,9.50
2019-05-26T23:46:30.067Z,8.65
2019-05-26T23:48:59.504Z,8.50
2019-05-26T23:51:28.890Z,9.13
2019-05-26T23:53:58.355Z,8.90
2019-05-26T23:56:27.746Z,8.83
2019-05-26T23:58:57.181Z,10.63
